createdAt,value
2019-03-03T00:02:18.339Z,76.38
2019-03-03T00:05:02.841Z,75.85
2019-03-03T00:07:33.359Z,75.76
2019-03-03T00:10:04.186Z,75.32
2019-03-03T00:12:41.969Z,75.32
2019-03-03T00:15:15.497Z,75.54
2019-03-03T00:17:45.946Z,75.12
2019-03-03T00:20:16.593Z,74.64
2019-03-03T00:22:46.865Z,74.14
2019-03-03T00:25:18.089Z,73.45
2019-03-03T00:27:48.678Z,73.45
2019-03-03T00:30:19.469Z,73.71
2019-03-03T00:33:00.458Z,73.47
2019-03-03T00:35:31.684Z,73.49
2019-03-03T00:38:23.789Z,73.17
2019-03-03T00:41:22.374Z,72.81
2019-03-03T00:44:11.644Z,72.79
2019-03-03T00:46:54.520Z,72.88
2019-03-03T00:49:32.526Z,72.43
2019-03-03T00:52:29.278Z,72.43
2019-03-03T00:55:10.780Z,72.31
2019-03-03T00:58:00.305Z,71.98
2019-03-03T01:00:39.809Z,71.94
2019-03-03T01:03:20.359Z,71.76
2019-03-03T01:05:56.759Z,71.54
2019-03-03T01:08:48.114Z,71.30
2019-03-03T01:11:40.176Z,71.21
2019-03-03T01:14:32.669Z,70.88
2019-03-03T01:17:19.636Z,70.72
2019-03-03T01:20:04.509Z,70.54
2019-03-03T01:22:59.586Z,70.50
2019-03-03T01:25:30.006Z,70.42
2019-03-03T01:28:07.503Z,70.44
2019-03-03T01:30:32.596Z,70.74
2019-03-03T01:33:03.209Z,70.00
2019-03-03T01:35:39.676Z,69.75
2019-03-03T01:38:13.098Z,70.06
2019-03-03T01:40:44.958Z,69.70
2019-03-03T01:43:17.448Z,69.75
2019-03-03T01:45:47.734Z,69.69
2019-03-03T01:48:18.410Z,69.67
2019-03-03T01:50:48.687Z,69.60
2019-03-03T01:53:19.077Z,69.45
2019-03-03T01:55:50.588Z,69.23
2019-03-03T01:58:21.194Z,69.05
2019-03-03T02:00:52.032Z,69.03
2019-03-03T02:03:22.939Z,68.65
2019-03-03T02:05:54.690Z,68.56
2019-03-03T02:08:26.537Z,68.96
2019-03-03T02:10:57.488Z,69.09
2019-03-03T02:13:28.396Z,69.28
2019-03-03T02:15:59.041Z,69.19
2019-03-03T02:18:29.589Z,69.20
2019-03-03T02:21:02.803Z,69.21
2019-03-03T02:23:34.146Z,69.39
2019-03-03T02:26:04.808Z,69.40
2019-03-03T02:28:36.696Z,69.64
2019-03-03T02:31:08.720Z,69.71
2019-03-03T02:33:39.238Z,69.82
2019-03-03T02:36:09.806Z,69.86
2019-03-03T02:38:41.212Z,69.86
2019-03-03T02:41:12.383Z,69.76
2019-03-03T02:43:45.893Z,69.49
2019-03-03T02:46:16.351Z,69.58
2019-03-03T02:48:48.531Z,69.74
2019-03-03T02:51:20.251Z,69.83
2019-03-03T02:53:50.567Z,69.87
2019-03-03T02:56:21.253Z,69.94
2019-03-03T02:58:53.005Z,69.80
2019-03-03T03:01:29.731Z,70.12
2019-03-03T03:04:00.005Z,70.32
2019-03-03T03:06:38.575Z,70.18
2019-03-03T03:09:18.241Z,70.06
2019-03-03T03:12:01.251Z,70.10
2019-03-03T03:14:53.321Z,69.89
2019-03-03T03:17:44.659Z,70.11
2019-03-03T03:20:48.536Z,70.34
2019-03-03T03:23:43.239Z,70.38
2019-03-03T03:26:27.804Z,70.25
2019-03-03T03:29:34.854Z,70.08
2019-03-03T03:32:18.006Z,69.86
2019-03-03T03:35:19.848Z,69.98
2019-03-03T03:38:09.190Z,70.01
2019-03-03T03:40:58.409Z,69.79
2019-03-03T03:43:48.283Z,69.77
2019-03-03T03:46:43.455Z,69.95
2019-03-03T03:49:40.426Z,70.27
2019-03-03T03:52:27.385Z,71.12
2019-03-03T03:55:21.732Z,72.11
2019-03-03T03:58:04.743Z,72.63
2019-03-03T04:00:56.738Z,73.31
2019-03-03T04:03:52.112Z,73.71
2019-03-03T04:06:45.610Z,74.02
2019-03-03T04:09:33.704Z,73.73
2019-03-03T04:12:21.113Z,74.15
2019-03-03T04:15:16.501Z,74.17
2019-03-03T04:18:24.000Z,74.07
2019-03-03T04:21:16.074Z,74.74
2019-03-03T04:24:03.926Z,75.26
2019-03-03T04:26:57.729Z,75.64
2019-03-03T04:29:46.666Z,75.85
2019-03-03T04:32:26.215Z,76.02
2019-03-03T04:35:08.816Z,77.06
2019-03-03T04:38:01.775Z,78.62
2019-03-03T04:40:48.742Z,79.78
2019-03-03T04:43:24.767Z,80.57
2019-03-03T04:46:29.974Z,81.24
2019-03-03T04:49:29.398Z,81.74
2019-03-03T04:52:36.957Z,82.42
2019-03-03T04:55:25.486Z,82.94
2019-03-03T04:58:23.967Z,83.20
2019-03-03T05:01:31.823Z,83.43
2019-03-03T05:04:13.531Z,83.69
2019-03-03T05:06:53.529Z,83.71
2019-03-03T05:10:03.428Z,83.82
2019-03-03T05:13:07.629Z,84.03
2019-03-03T05:15:55.260Z,84.28
2019-03-03T05:18:53.593Z,84.52
2019-03-03T05:21:27.996Z,84.57
2019-03-03T05:24:01.996Z,84.67
2019-03-03T05:26:35.129Z,84.71
2019-03-03T05:29:07.764Z,84.79
2019-03-03T05:31:38.106Z,84.88
2019-03-03T05:34:12.422Z,84.90
2019-03-03T05:36:42.796Z,84.93
2019-03-03T05:39:15.772Z,84.89
2019-03-03T05:41:47.985Z,84.74
2019-03-03T05:44:19.867Z,84.69
2019-03-03T05:46:50.359Z,84.45
2019-03-03T05:49:23.780Z,84.47
2019-03-03T05:51:54.222Z,84.44
2019-03-03T05:54:24.994Z,84.30
2019-03-03T05:57:14.420Z,84.31
2019-03-03T05:59:43.066Z,84.32
2019-03-03T06:02:28.295Z,84.31
2019-03-03T06:04:47.268Z,84.35
2019-03-03T06:07:20.903Z,84.17
2019-03-03T06:09:53.176Z,84.05
2019-03-03T06:12:23.676Z,83.93
2019-03-03T06:14:56.293Z,83.78
2019-03-03T06:17:27.864Z,83.68
2019-03-03T06:19:58.526Z,83.47
2019-03-03T06:22:31.039Z,83.28
2019-03-03T06:25:01.921Z,83.40
2019-03-03T06:27:32.440Z,83.23
2019-03-03T06:30:05.401Z,83.24
2019-03-03T06:32:37.065Z,83.35
2019-03-03T06:35:09.894Z,83.48
2019-03-03T06:37:41.599Z,83.43
2019-03-03T06:40:12.540Z,83.10
2019-03-03T06:42:45.504Z,81.90
2019-03-03T06:45:18.196Z,80.17
2019-03-03T06:47:48.968Z,79.61
2019-03-03T06:50:19.550Z,79.15
2019-03-03T06:52:51.454Z,79.09
2019-03-03T06:55:29.951Z,78.51
2019-03-03T06:58:03.165Z,78.02
2019-03-03T07:00:35.240Z,77.69
2019-03-03T07:03:09.958Z,77.64
2019-03-03T07:05:48.114Z,77.48
2019-03-03T07:08:18.792Z,77.30
2019-03-03T07:10:54.058Z,77.00
2019-03-03T07:13:21.538Z,76.71
2019-03-03T07:15:55.164Z,76.94
2019-03-03T07:19:35.874Z,76.87
2019-03-03T07:21:00.382Z,76.63
2019-03-03T07:23:38.169Z,76.23
2019-03-03T07:26:09.541Z,76.51
2019-03-03T07:28:39.853Z,76.29
2019-03-03T07:31:11.666Z,75.87
2019-03-03T07:33:45.574Z,76.00
2019-03-03T07:36:16.164Z,75.89
2019-03-03T07:38:48.189Z,75.88
2019-03-03T07:41:18.923Z,75.75
2019-03-03T07:43:49.479Z,75.55
2019-03-03T07:46:20.033Z,75.29
2019-03-03T07:48:50.684Z,75.47
2019-03-03T07:51:22.737Z,75.38
2019-03-03T07:53:53.030Z,74.77
2019-03-03T07:56:23.932Z,74.69
2019-03-03T07:58:54.784Z,74.73
2019-03-03T08:01:28.036Z,74.56
2019-03-03T08:04:02.636Z,75.10
2019-03-03T08:06:33.223Z,75.26
2019-03-03T08:09:04.960Z,75.78
2019-03-03T08:11:39.020Z,75.88
2019-03-03T08:14:09.388Z,76.03
2019-03-03T08:16:42.435Z,76.44
2019-03-03T08:19:14.346Z,77.36
2019-03-03T08:21:55.820Z,78.30
2019-03-03T08:24:19.504Z,79.12
2019-03-03T08:26:53.925Z,79.65
2019-03-03T08:29:24.204Z,80.13
2019-03-03T08:31:54.829Z,80.42
2019-03-03T08:34:25.198Z,80.81
2019-03-03T08:37:05.146Z,80.75
2019-03-03T08:39:35.178Z,80.81
2019-03-03T08:42:23.214Z,80.63
2019-03-03T08:45:21.263Z,80.69
2019-03-03T08:48:01.768Z,80.72
2019-03-03T08:50:36.719Z,80.50
2019-03-03T08:53:33.943Z,80.17
2019-03-03T08:56:26.230Z,80.33
2019-03-03T08:59:17.184Z,80.39
2019-03-03T09:01:53.988Z,80.41
2019-03-03T09:04:43.620Z,80.62
2019-03-03T09:07:19.677Z,81.27
2019-03-03T09:10:05.801Z,82.14
2019-03-03T09:13:02.857Z,82.65
2019-03-03T09:16:01.158Z,83.12
2019-03-03T09:18:56.397Z,83.47
2019-03-03T09:21:42.814Z,83.85
2019-03-03T09:24:37.973Z,84.05
2019-03-03T09:27:26.197Z,84.20
2019-03-03T09:30:33.894Z,84.22
2019-03-03T09:33:26.178Z,84.27
2019-03-03T09:36:18.563Z,84.45
2019-03-03T09:39:06.545Z,84.58
2019-03-03T09:41:58.217Z,84.65
2019-03-03T09:44:47.095Z,84.62
2019-03-03T09:47:41.366Z,84.77
2019-03-03T09:50:25.455Z,84.87
2019-03-03T09:53:25.476Z,84.95
2019-03-03T09:56:08.890Z,85.10
2019-03-03T09:59:07.543Z,85.06
2019-03-03T10:02:19.148Z,85.08
2019-03-03T10:05:07.361Z,85.11
2019-03-03T10:08:02.855Z,85.07
2019-03-03T10:10:46.231Z,84.96
2019-03-03T10:13:28.573Z,84.99
2019-03-03T10:16:16.646Z,85.22
2019-03-03T10:19:11.958Z,85.22
2019-03-03T10:22:06.505Z,84.94
2019-03-03T10:24:54.727Z,84.98
2019-03-03T10:27:46.326Z,85.00
2019-03-03T10:30:35.686Z,85.07
2019-03-03T10:33:43.451Z,85.06
2019-03-03T10:36:27.589Z,85.04
2019-03-03T10:39:31.423Z,85.11
2019-03-03T10:42:21.056Z,85.02
2019-03-03T10:45:19.081Z,85.09
2019-03-03T10:48:01.284Z,85.20
2019-03-03T10:50:50.282Z,85.17
2019-03-03T10:53:57.483Z,85.06
2019-03-03T10:56:47.641Z,84.87
2019-03-03T10:59:41.178Z,84.81
2019-03-03T11:02:38.318Z,84.75
2019-03-03T11:05:27.946Z,84.74
2019-03-03T11:08:18.938Z,84.77
2019-03-03T11:11:08.197Z,84.74
2019-03-03T11:14:13.486Z,84.69
2019-03-03T11:17:09.909Z,84.66
2019-03-03T11:20:04.479Z,84.54
2019-03-03T11:22:55.193Z,84.44
2019-03-03T11:25:43.912Z,84.49
2019-03-03T11:28:28.802Z,84.39
2019-03-03T11:31:24.085Z,83.88
2019-03-03T11:34:11.803Z,83.74
2019-03-03T11:37:00.005Z,83.23
2019-03-03T11:39:52.887Z,82.61
2019-03-03T11:42:41.581Z,81.91
2019-03-03T11:45:34.996Z,81.91
2019-03-03T11:48:19.832Z,81.29
2019-03-03T11:51:11.216Z,80.96
2019-03-03T11:53:50.640Z,80.60
2019-03-03T11:56:34.940Z,79.31
2019-03-03T11:59:36.283Z,79.09
2019-03-03T12:02:29.290Z,78.66
2019-03-03T12:05:24.735Z,78.55
2019-03-03T12:08:22.769Z,78.08
2019-03-03T12:11:12.317Z,77.88
2019-03-03T12:14:11.402Z,77.55
2019-03-03T12:17:19.066Z,77.68
2019-03-03T12:20:04.152Z,77.46
2019-03-03T12:23:09.660Z,77.59
2019-03-03T12:26:08.847Z,76.83
2019-03-03T12:29:04.493Z,76.78
2019-03-03T12:31:52.655Z,76.21
2019-03-03T12:34:47.038Z,76.44
2019-03-03T12:37:39.344Z,75.57
2019-03-03T12:40:32.411Z,76.06
2019-03-03T12:43:18.683Z,75.49
2019-03-03T12:46:14.193Z,76.09
2019-03-03T12:49:22.065Z,76.38
2019-03-03T12:51:58.853Z,75.47
2019-03-03T12:54:47.036Z,76.29
2019-03-03T12:57:49.089Z,76.49
2019-03-03T13:00:39.753Z,77.64
2019-03-03T13:03:27.956Z,78.88
2019-03-03T13:06:07.686Z,80.31
2019-03-03T13:09:04.075Z,81.73
2019-03-03T13:11:52.447Z,82.54
2019-03-03T13:14:44.219Z,83.22
2019-03-03T13:17:48.233Z,83.54
2019-03-03T13:20:40.128Z,83.58
2019-03-03T13:23:42.599Z,83.74
2019-03-03T13:26:55.392Z,83.91
2019-03-03T13:29:50.586Z,84.23
2019-03-03T13:32:47.384Z,84.08
2019-03-03T13:35:38.566Z,84.40
2019-03-03T13:38:22.898Z,85.35
2019-03-03T13:41:24.793Z,85.35
2019-03-03T13:44:02.050Z,85.06
2019-03-03T13:46:28.529Z,85.14
2019-03-03T13:49:01.680Z,85.20
2019-03-03T13:51:39.978Z,85.27
2019-03-03T13:54:10.257Z,85.33
2019-03-03T13:56:50.569Z,85.38
2019-03-03T13:59:21.962Z,85.34
2019-03-03T14:01:54.011Z,85.34
2019-03-03T14:04:29.010Z,85.41
2019-03-03T14:07:01.674Z,85.40
2019-03-03T14:09:44.979Z,85.48
2019-03-03T14:12:15.371Z,85.50
2019-03-03T14:14:48.461Z,85.43
2019-03-03T14:17:24.444Z,85.41
2019-03-03T14:19:51.457Z,85.19
2019-03-03T14:22:27.416Z,85.15
2019-03-03T14:24:59.702Z,85.18
2019-03-03T14:27:44.767Z,84.87
2019-03-03T14:30:40.316Z,84.92
2019-03-03T14:32:59.726Z,84.85
2019-03-03T14:35:30.107Z,84.79
2019-03-03T14:38:02.206Z,84.67
2019-03-03T14:40:32.834Z,84.28
2019-03-03T14:43:06.401Z,84.13
2019-03-03T14:45:36.715Z,84.09
2019-03-03T14:48:17.913Z,83.57
2019-03-03T14:50:48.377Z,83.24
2019-03-03T14:53:18.702Z,83.21
2019-03-03T14:55:57.277Z,83.08
2019-03-03T14:58:27.854Z,82.94
2019-03-03T15:00:59.272Z,82.24
2019-03-03T15:03:33.877Z,80.79
2019-03-03T15:06:04.418Z,79.61
2019-03-03T15:08:41.442Z,78.60
2019-03-03T15:11:22.927Z,78.07
2019-03-03T15:13:53.347Z,77.77
2019-03-03T15:16:26.493Z,77.16
2019-03-03T15:18:57.214Z,76.47
2019-03-03T15:21:27.571Z,76.11
2019-03-03T15:23:58.263Z,75.86
2019-03-03T15:26:33.032Z,75.17
2019-03-03T15:29:16.057Z,76.00
2019-03-03T15:31:42.232Z,75.53
2019-03-03T15:34:20.847Z,75.31
2019-03-03T15:36:51.474Z,74.37
2019-03-03T15:39:24.694Z,74.85
2019-03-03T15:41:59.219Z,74.47
2019-03-03T15:44:33.988Z,74.02
2019-03-03T15:47:12.568Z,73.39
2019-03-03T15:49:39.473Z,73.23
2019-03-03T15:52:09.987Z,73.50
2019-03-03T15:54:44.442Z,72.71
2019-03-03T15:57:23.007Z,72.71
2019-03-03T15:59:53.602Z,72.92
2019-03-03T16:02:23.978Z,73.16
2019-03-03T16:04:56.447Z,72.61
2019-03-03T16:07:26.816Z,72.13
2019-03-03T16:10:01.217Z,72.52
2019-03-03T16:12:32.611Z,72.48
2019-03-03T16:15:04.628Z,71.76
2019-03-03T16:17:37.128Z,71.74
2019-03-03T16:20:09.245Z,72.14
2019-03-03T16:22:39.691Z,71.65
2019-03-03T16:25:11.641Z,71.76
2019-03-03T16:27:42.549Z,72.26
2019-03-03T16:30:15.255Z,71.40
2019-03-03T16:32:53.841Z,70.96
2019-03-03T16:35:24.850Z,70.99
2019-03-03T16:37:58.325Z,70.78
2019-03-03T16:40:39.638Z,71.16
2019-03-03T16:43:06.614Z,71.06
2019-03-03T16:45:44.996Z,71.11
2019-03-03T16:48:15.659Z,70.95
2019-03-03T16:50:46.699Z,70.57
2019-03-03T16:53:17.144Z,70.95
2019-03-03T16:55:47.752Z,70.71
2019-03-03T16:58:19.215Z,70.24
2019-03-03T17:00:53.007Z,70.60
2019-03-03T17:03:23.689Z,70.80
2019-03-03T17:05:55.467Z,71.16
2019-03-03T17:08:27.026Z,71.06
2019-03-03T17:10:57.538Z,70.91
2019-03-03T17:13:31.655Z,70.66
2019-03-03T17:16:03.303Z,70.07
2019-03-03T17:18:33.733Z,70.31
2019-03-03T17:21:04.238Z,70.14
2019-03-03T17:23:35.049Z,70.25
2019-03-03T17:26:07.125Z,70.09
2019-03-03T17:28:38.013Z,69.95
2019-03-03T17:31:38.629Z,70.27
2019-03-03T17:33:44.083Z,69.81
2019-03-03T17:36:17.268Z,69.68
2019-03-03T17:38:47.867Z,70.10
2019-03-03T17:41:20.157Z,70.25
2019-03-03T17:43:55.514Z,69.71
2019-03-03T17:46:25.891Z,69.31
2019-03-03T17:48:56.341Z,69.41
2019-03-03T17:51:26.748Z,70.07
2019-03-03T17:53:58.922Z,70.00
2019-03-03T17:56:29.378Z,69.46
2019-03-03T17:58:59.858Z,69.62
2019-03-03T18:01:49.315Z,69.27
2019-03-03T18:04:20.027Z,69.69
2019-03-03T18:06:52.941Z,69.44
2019-03-03T18:09:25.259Z,69.55
2019-03-03T18:11:57.001Z,69.22
2019-03-03T18:14:29.357Z,68.71
2019-03-03T18:16:59.979Z,68.37
2019-03-03T18:19:31.801Z,68.02
2019-03-03T18:22:04.778Z,68.12
2019-03-03T18:24:35.246Z,67.45
2019-03-03T18:29:50.024Z,67.78
2019-03-03T18:32:20.870Z,68.05
2019-03-03T18:34:51.438Z,67.89
2019-03-03T18:37:27.076Z,67.12
2019-03-03T18:40:03.113Z,67.40
2019-03-03T18:42:33.517Z,66.87
2019-03-03T18:45:12.292Z,66.74
2019-03-03T18:47:45.215Z,66.20
2019-03-03T18:50:17.641Z,66.20
2019-03-03T18:52:50.472Z,66.41
2019-03-03T18:55:20.910Z,66.32
2019-03-03T18:57:54.203Z,66.26
2019-03-03T19:00:26.603Z,66.06
2019-03-03T19:03:00.235Z,66.35
2019-03-03T19:05:30.871Z,65.68
2019-03-03T19:08:01.212Z,65.92
2019-03-03T19:10:36.270Z,65.99
2019-03-03T19:13:06.782Z,65.69
2019-03-03T19:15:37.234Z,65.53
2019-03-03T19:18:10.258Z,65.45
2019-03-03T19:20:43.161Z,64.83
2019-03-03T19:23:16.713Z,65.03
2019-03-03T19:25:47.346Z,65.03
2019-03-03T19:33:50.493Z,64.71
2019-03-03T19:36:20.821Z,65.51
2019-03-03T19:38:55.606Z,67.31
2019-03-03T19:41:26.103Z,66.88
2019-03-03T19:43:56.556Z,66.38
2019-03-03T19:46:35.912Z,65.94
2019-03-03T19:49:12.934Z,65.92
2019-03-03T19:52:05.211Z,65.53
2019-03-03T19:54:46.652Z,65.53
2019-03-03T19:57:17.180Z,65.05
2019-03-03T19:59:53.765Z,65.07
2019-03-03T20:02:28.321Z,65.00
2019-03-03T20:05:03.710Z,64.68
2019-03-03T20:07:42.601Z,65.12
2019-03-03T20:10:23.500Z,64.36
2019-03-03T20:13:04.635Z,64.36
2019-03-03T20:15:39.593Z,64.49
2019-03-03T20:18:13.446Z,64.49
2019-03-03T20:20:47.913Z,64.79
2019-03-03T20:23:27.660Z,64.63
2019-03-03T20:26:04.814Z,64.63
2019-03-03T20:28:42.900Z,65.09
2019-03-03T20:31:22.029Z,65.40
2019-03-03T20:33:55.509Z,65.35
2019-03-03T20:36:30.428Z,65.93
2019-03-03T20:39:06.873Z,65.93
2019-03-03T20:41:39.671Z,66.00
2019-03-03T20:44:22.854Z,65.97
2019-03-03T20:46:50.099Z,66.02
2019-03-03T20:49:20.599Z,66.11
2019-03-03T20:51:52.964Z,66.07
2019-03-03T20:54:27.797Z,65.61
2019-03-03T20:57:01.610Z,65.81
2019-03-03T20:59:33.168Z,65.62
2019-03-03T21:02:06.817Z,65.62
2019-03-03T21:04:42.301Z,65.94
2019-03-03T21:07:12.889Z,65.72
2019-03-03T21:09:45.267Z,65.49
2019-03-03T21:12:16.814Z,65.34
2019-03-03T21:14:47.758Z,65.32
2019-03-03T21:17:23.885Z,65.36
2019-03-03T21:19:56.313Z,65.43
2019-03-03T21:22:26.817Z,66.18
2019-03-03T21:25:02.128Z,66.54
2019-03-03T21:27:32.716Z,66.64
2019-03-03T21:30:11.992Z,66.05
2019-03-03T21:32:42.375Z,65.65
2019-03-03T21:35:15.498Z,65.39
2019-03-03T21:37:47.357Z,65.15
2019-03-03T21:40:20.792Z,64.90
2019-03-03T21:42:51.433Z,64.75
2019-03-03T21:45:24.884Z,64.88
2019-03-03T21:47:58.598Z,64.93
2019-03-03T21:50:29.238Z,64.39
2019-03-03T21:53:07.542Z,64.39
2019-03-03T21:55:39.236Z,64.76
2019-03-03T21:58:11.122Z,64.41
2019-03-03T22:00:42.734Z,64.79
2019-03-03T22:03:15.065Z,64.79
2019-03-03T22:05:47.017Z,64.37
2019-03-03T22:08:17.714Z,64.59
2019-03-03T22:10:48.251Z,64.50
2019-03-03T22:13:21.381Z,64.49
2019-03-03T22:15:53.145Z,64.20
2019-03-03T22:18:23.472Z,64.36
2019-03-03T22:20:56.293Z,64.22
2019-03-03T22:23:28.640Z,63.98
2019-03-03T22:26:01.591Z,64.05
2019-03-03T22:28:37.868Z,63.83
2019-03-03T22:31:16.243Z,63.19
2019-03-03T22:33:53.184Z,63.33
2019-03-03T22:36:28.453Z,62.71
2019-03-03T22:38:59.009Z,62.43
2019-03-03T22:41:39.347Z,62.82
2019-03-03T22:44:13.263Z,62.57
2019-03-03T22:46:52.093Z,62.44
2019-03-03T22:49:41.731Z,62.33
2019-03-03T22:52:11.924Z,62.15
2019-03-03T22:54:48.587Z,61.88
2019-03-03T22:57:40.330Z,62.44
2019-03-03T23:00:55.080Z,62.55
2019-03-03T23:03:43.247Z,62.84
2019-03-03T23:06:32.222Z,63.22
2019-03-03T23:09:42.839Z,63.40
2019-03-03T23:12:47.224Z,63.48
2019-03-03T23:16:02.597Z,63.29
2019-03-03T23:19:25.431Z,63.30
2019-03-03T23:22:48.586Z,63.79
2019-03-03T23:25:50.821Z,63.62
2019-03-03T23:28:41.008Z,63.48
2019-03-03T23:31:12.021Z,63.57
2019-03-03T23:33:49.911Z,63.59
2019-03-03T23:36:29.528Z,63.28
2019-03-03T23:39:24.258Z,63.15
2019-03-03T23:41:58.240Z,62.87
2019-03-03T23:44:39.967Z,62.45
2019-03-03T23:47:22.640Z,62.54
2019-03-03T23:50:07.968Z,62.22
2019-03-03T23:52:45.945Z,62.12
2019-03-03T23:55:29.723Z,61.99
2019-03-03T23:58:00.248Z,61.40
